createdAt,value
2018-05-18T00:01:15.183Z,6.67
2018-05-18T00:03:42.706Z,7.07
2018-05-18T00:06:10.216Z,5.40
2018-05-18T00:08:37.719Z,4.70
2018-05-18T00:11:05.243Z,5.97
2018-05-18T00:13:32.732Z,5.50
2018-05-18T00:16:00.222Z,6.20
2018-05-18T00:18:27.757Z,5.67
2018-05-18T00:20:55.256Z,6.80
2018-05-18T00:23:22.751Z,5.67
2018-05-18T00:25:51.047Z,5.23
2018-05-18T00:28:19.309Z,5.63
2018-05-18T00:30:46.801Z,5.70
2018-05-18T00:33:15.093Z,5.63
2018-05-18T00:35:43.349Z,6.23
2018-05-18T00:38:10.858Z,5.43
2018-05-18T00:40:38.390Z,5.73
2018-05-18T00:43:05.882Z,6.37
2018-05-18T00:45:33.374Z,6.20
2018-05-18T00:48:00.916Z,5.87
2018-05-18T00:50:28.410Z,6.30
2018-05-18T00:52:56.675Z,6.00
2018-05-18T00:55:35.944Z,8.80
2018-05-18T00:58:04.204Z,6.20
2018-05-18T01:00:31.690Z,5.57
2018-05-18T01:02:59.216Z,6.30
2018-05-18T01:05:26.723Z,6.57
2018-05-18T01:07:54.206Z,6.57
2018-05-18T01:10:21.728Z,6.37
2018-05-18T01:12:49.227Z,7.57
2018-05-18T01:15:16.723Z,6.73
2018-05-18T01:17:45.015Z,6.30
2018-05-18T01:20:13.273Z,6.20
2018-05-18T01:22:40.768Z,7.60
2018-05-18T01:25:09.071Z,6.70
2018-05-18T01:27:36.573Z,6.80
2018-05-18T01:30:04.079Z,7.00
2018-05-18T01:32:31.603Z,8.00
2018-05-18T01:34:59.091Z,6.40
2018-05-18T01:37:26.584Z,6.90
2018-05-18T01:39:54.123Z,6.93
2018-05-18T01:42:21.632Z,6.73
2018-05-18T01:44:49.128Z,6.43
2018-05-18T01:47:17.425Z,6.33
2018-05-18T01:49:44.924Z,7.00
2018-05-18T01:52:12.420Z,8.90
2018-05-18T01:54:39.951Z,7.23
2018-05-18T01:57:07.510Z,6.47
2018-05-18T01:59:35.035Z,6.57
2018-05-18T02:02:02.535Z,6.90
2018-05-18T02:04:30.799Z,5.90
2018-05-18T02:06:58.320Z,7.40
2018-05-18T02:09:25.816Z,5.53
2018-05-18T02:11:53.307Z,4.97
2018-05-18T02:14:20.828Z,5.60
2018-05-18T02:16:48.334Z,5.97
2018-05-18T02:19:15.820Z,5.13
2018-05-18T02:21:44.148Z,5.90
2018-05-18T02:24:11.653Z,6.60
2018-05-18T02:26:39.151Z,5.60
2018-05-18T02:29:06.696Z,5.40
2018-05-18T02:31:34.183Z,7.07
2018-05-18T02:34:01.676Z,6.43
2018-05-18T02:36:29.971Z,5.27
2018-05-18T02:38:58.228Z,5.73
2018-05-18T02:41:25.719Z,6.13
2018-05-18T02:43:54.019Z,6.77
2018-05-18T02:46:22.277Z,6.43
2018-05-18T02:48:49.762Z,5.70
2018-05-18T02:51:17.288Z,6.30
2018-05-18T02:53:44.787Z,5.00
2018-05-18T02:56:12.303Z,7.27
2018-05-18T02:58:39.828Z,5.37
2018-05-18T03:01:07.314Z,5.70
2018-05-18T03:03:34.811Z,6.60
2018-05-18T03:06:02.331Z,7.40
2018-05-18T03:08:29.826Z,5.90
2018-05-18T03:10:57.320Z,6.73
2018-05-18T03:13:25.617Z,6.30
2018-05-18T03:15:53.114Z,6.03
2018-05-18T03:18:20.618Z,6.70
2018-05-18T03:20:48.131Z,5.70
2018-05-18T03:23:15.640Z,6.27
2018-05-18T03:25:43.137Z,5.30
2018-05-18T03:28:10.663Z,6.10
2018-05-18T03:30:38.176Z,6.00
2018-05-18T03:33:05.672Z,8.57
2018-05-18T03:35:33.955Z,7.70
2018-05-18T03:38:02.215Z,6.70
2018-05-18T03:40:29.717Z,5.83
2018-05-18T03:42:58.006Z,6.30
2018-05-18T03:45:25.499Z,5.97
2018-05-18T03:47:52.993Z,5.13
2018-05-18T03:50:20.522Z,5.90
2018-05-18T03:52:48.028Z,6.10
2018-05-18T03:55:15.518Z,5.63
2018-05-18T03:57:43.043Z,6.20
2018-05-18T04:00:10.545Z,6.00
2018-05-18T04:02:49.887Z,10.13
2018-05-18T04:05:29.288Z,11.70
2018-05-18T04:08:08.575Z,12.67
2018-05-18T04:10:36.079Z,13.17
2018-05-18T04:13:03.576Z,11.10
2018-05-18T04:15:31.198Z,7.30
2018-05-18T04:17:58.760Z,8.00
2018-05-18T04:20:26.250Z,8.70
2018-05-18T04:22:53.763Z,8.23
2018-05-18T04:25:21.254Z,7.63
2018-05-18T04:27:48.763Z,7.73
2018-05-18T04:30:16.289Z,9.03
2018-05-18T04:32:43.801Z,8.47
2018-05-18T04:35:11.297Z,7.50
2018-05-18T04:37:38.819Z,8.30
2018-05-18T04:40:06.320Z,9.07
2018-05-18T04:42:33.845Z,9.20
2018-05-18T04:45:02.109Z,9.50
2018-05-18T04:47:30.375Z,8.50
2018-05-18T04:49:57.915Z,9.07
2018-05-18T04:52:25.415Z,9.17
2018-05-18T04:54:52.916Z,9.37
2018-05-18T04:57:21.212Z,9.17
2018-05-18T04:59:49.489Z,9.77
2018-05-18T05:02:17.760Z,9.83
2018-05-18T05:04:45.288Z,9.50
2018-05-18T05:07:12.780Z,9.57
2018-05-18T05:09:40.275Z,10.03
2018-05-18T05:12:07.795Z,8.60
2018-05-18T05:14:35.295Z,9.27
2018-05-18T05:17:02.800Z,8.80
2018-05-18T05:19:31.079Z,9.80
2018-05-18T05:21:58.562Z,8.70
2018-05-18T05:24:26.858Z,8.90
2018-05-18T05:26:54.374Z,9.50
2018-05-18T05:29:21.887Z,8.80
2018-05-18T05:31:49.407Z,9.23
2018-05-18T05:34:16.905Z,10.63
2018-05-18T05:36:44.461Z,11.73
2018-05-18T05:39:11.951Z,9.73
2018-05-18T05:41:39.457Z,10.50
2018-05-18T05:44:07.725Z,10.43
2018-05-18T05:46:35.261Z,11.80
2018-05-18T05:49:02.763Z,14.50
2018-05-18T05:51:30.288Z,13.30
2018-05-18T05:53:57.777Z,14.20
2018-05-18T05:56:25.265Z,15.97
2018-05-18T05:58:52.780Z,14.53
2018-05-18T06:01:20.286Z,15.70
2018-05-18T06:03:47.785Z,16.97
2018-05-18T06:06:15.328Z,15.23
2018-05-18T06:08:42.827Z,16.40
2018-05-18T06:11:10.318Z,16.30
2018-05-18T06:13:37.872Z,17.10
2018-05-18T06:16:05.381Z,17.27
2018-05-18T06:18:32.876Z,16.10
2018-05-18T06:21:04.490Z,18.80
2018-05-18T06:23:31.986Z,19.17
2018-05-18T06:25:59.548Z,19.37
2018-05-18T06:28:27.043Z,17.03
2018-05-18T06:30:54.552Z,19.50
2018-05-18T06:33:22.181Z,18.67
2018-05-18T06:35:49.755Z,19.03
2018-05-18T06:38:17.372Z,18.07
2018-05-18T06:40:45.007Z,16.93
2018-05-18T06:43:12.503Z,18.67
2018-05-18T06:45:40.035Z,18.47
2018-05-18T06:48:07.554Z,16.83
2018-05-18T06:50:35.104Z,17.60
2018-05-18T06:53:03.426Z,16.87
2018-05-18T06:55:30.967Z,16.57
2018-05-18T06:57:58.584Z,16.87
2018-05-18T07:00:26.847Z,16.50
2018-05-18T07:02:54.362Z,16.67
2018-05-18T07:05:21.899Z,15.43
2018-05-18T07:07:49.423Z,14.90
2018-05-18T07:10:16.956Z,15.10
2018-05-18T07:12:44.464Z,16.17
2018-05-18T07:15:11.971Z,15.23
2018-05-18T07:17:39.500Z,16.60
2018-05-18T07:20:07.104Z,17.27
2018-05-18T07:22:34.595Z,16.40
2018-05-18T07:25:02.128Z,15.50
2018-05-18T07:27:29.780Z,15.20
2018-05-18T07:29:57.332Z,14.63
2018-05-18T07:32:24.961Z,15.97
2018-05-18T07:34:52.455Z,13.90
2018-05-18T07:37:19.962Z,15.97
2018-05-18T07:39:47.560Z,15.00
2018-05-18T07:42:15.051Z,14.90
2018-05-18T07:44:42.559Z,14.70
2018-05-18T07:47:10.083Z,17.47
2018-05-18T07:49:37.587Z,27.33
2018-05-18T07:52:07.015Z,18.87
2018-05-18T07:54:34.517Z,14.87
2018-05-18T07:57:02.022Z,14.47
2018-05-18T07:59:29.627Z,14.30
2018-05-18T08:01:57.169Z,14.17
2018-05-18T08:04:24.774Z,14.00
2018-05-18T08:06:53.117Z,13.37
2018-05-18T08:09:20.664Z,13.27
2018-05-18T08:11:48.190Z,15.47
2018-05-18T08:14:16.457Z,13.40
2018-05-18T08:16:43.958Z,13.27
2018-05-18T08:19:12.306Z,13.63
2018-05-18T08:21:39.843Z,15.03
2018-05-18T08:24:07.489Z,13.40
2018-05-18T08:26:35.045Z,12.80
2018-05-18T08:29:14.424Z,13.67
2018-05-18T08:31:41.963Z,13.30
2018-05-18T08:34:09.469Z,14.50
2018-05-18T08:36:36.967Z,14.30
2018-05-18T08:39:04.500Z,14.30
2018-05-18T08:41:32.007Z,13.60
2018-05-18T08:43:59.499Z,13.90
2018-05-18T08:46:27.027Z,13.73
2018-05-18T08:48:54.540Z,14.17
2018-05-18T08:51:22.067Z,14.40
2018-05-18T08:53:49.598Z,12.87
2018-05-18T08:56:17.092Z,12.80
2018-05-18T08:58:45.415Z,12.47
2018-05-18T09:01:12.921Z,13.63
2018-05-18T09:03:40.420Z,11.80
2018-05-18T09:06:08.708Z,12.33
2018-05-18T09:08:38.051Z,13.23
2018-05-18T09:11:05.562Z,13.00
2018-05-18T09:13:33.090Z,12.00
2018-05-18T09:16:00.610Z,14.87
2018-05-18T09:18:28.113Z,13.87
2018-05-18T09:20:56.478Z,11.57
2018-05-18T09:23:23.993Z,12.47
2018-05-18T09:25:51.486Z,12.43
2018-05-18T09:28:19.007Z,15.80
2018-05-18T09:30:47.266Z,15.73
2018-05-18T09:33:15.572Z,13.30
2018-05-18T09:35:43.872Z,14.43
2018-05-18T09:38:12.131Z,13.50
2018-05-18T09:40:39.631Z,14.13
2018-05-18T09:43:07.928Z,13.50
2018-05-18T09:45:35.447Z,19.47
2018-05-18T09:48:02.966Z,23.40
2018-05-18T09:50:31.396Z,13.60
2018-05-18T09:52:58.891Z,12.63
2018-05-18T09:55:26.541Z,13.07
2018-05-18T09:57:53.918Z,12.77
2018-05-18T10:00:21.419Z,12.47
2018-05-18T10:02:48.983Z,12.20
2018-05-18T10:05:16.487Z,13.60
2018-05-18T10:07:44.939Z,15.70
2018-05-18T10:10:12.683Z,15.83
2018-05-18T10:12:40.240Z,15.60
2018-05-18T10:15:07.730Z,15.70
2018-05-18T10:17:35.231Z,14.60
2018-05-18T10:20:02.757Z,14.80
2018-05-18T10:22:30.275Z,13.13
2018-05-18T10:24:57.794Z,13.33
2018-05-18T10:27:25.290Z,13.07
2018-05-18T10:29:52.798Z,14.37
2018-05-18T10:32:20.321Z,13.70
2018-05-18T10:34:47.822Z,14.63
2018-05-18T10:37:15.343Z,14.80
2018-05-18T10:39:43.090Z,14.20
2018-05-18T10:42:10.641Z,14.57
2018-05-18T10:44:38.405Z,13.90
2018-05-18T10:47:05.904Z,14.33
2018-05-18T10:49:33.492Z,15.67
2018-05-18T10:52:01.164Z,15.00
2018-05-18T10:54:29.630Z,13.27
2018-05-18T10:56:58.209Z,14.70
2018-05-18T10:59:26.619Z,14.80
2018-05-18T11:01:54.271Z,13.67
2018-05-18T11:04:21.981Z,13.60
2018-05-18T11:06:49.660Z,12.60
2018-05-18T11:09:18.104Z,13.57
2018-05-18T11:11:45.739Z,11.87
2018-05-18T11:14:14.074Z,13.50
2018-05-18T11:16:41.592Z,13.13
2018-05-18T11:19:09.872Z,13.07
2018-05-18T11:21:37.407Z,13.60
2018-05-18T11:24:04.960Z,12.90
2018-05-18T11:26:32.714Z,13.30
2018-05-18T11:29:00.243Z,30.37
2018-05-18T11:31:27.748Z,15.30
2018-05-18T11:33:56.024Z,13.33
2018-05-18T11:36:24.314Z,12.23
2018-05-18T11:38:52.611Z,13.30
2018-05-18T11:41:21.008Z,12.30
2018-05-18T11:43:48.561Z,13.90
2018-05-18T11:46:16.882Z,13.43
2018-05-18T11:48:44.435Z,11.30
2018-05-18T11:51:12.755Z,11.97
2018-05-18T11:53:40.246Z,11.27
2018-05-18T11:56:07.787Z,11.57
2018-05-18T11:58:35.370Z,12.27
2018-05-18T12:01:02.870Z,15.90
2018-05-18T12:03:30.396Z,14.13
2018-05-18T12:05:57.905Z,11.53
2018-05-18T12:08:25.581Z,11.40
2018-05-18T12:10:53.074Z,12.07
2018-05-18T12:13:20.584Z,10.27
2018-05-18T12:15:48.099Z,10.13
2018-05-18T12:18:15.618Z,10.53
2018-05-18T12:20:43.331Z,12.40
2018-05-18T12:23:11.658Z,11.43
2018-05-18T12:25:39.195Z,9.97
2018-05-18T12:28:06.707Z,10.60
2018-05-18T12:30:34.980Z,10.90
2018-05-18T12:33:02.502Z,9.80
2018-05-18T12:35:30.778Z,11.80
2018-05-18T12:37:58.373Z,11.53
2018-05-18T12:40:25.833Z,10.40
2018-05-18T12:42:53.335Z,9.73
2018-05-18T12:45:20.835Z,11.80
2018-05-18T12:47:49.118Z,11.40
2018-05-18T12:50:16.630Z,11.37
2018-05-18T12:52:44.135Z,11.30
2018-05-18T12:55:11.663Z,10.70
2018-05-18T12:57:39.159Z,28.13
2018-05-18T13:00:06.663Z,15.80
2018-05-18T13:02:34.182Z,12.57
2018-05-18T13:05:01.680Z,11.60
2018-05-18T13:07:29.203Z,12.20
2018-05-18T13:09:57.470Z,11.53
2018-05-18T13:12:24.999Z,10.10
2018-05-18T13:14:52.496Z,10.40
2018-05-18T13:17:20.009Z,10.90
2018-05-18T13:19:47.569Z,11.27
2018-05-18T13:22:15.843Z,11.53
2018-05-18T13:24:43.355Z,11.30
2018-05-18T13:27:10.871Z,10.87
2018-05-18T13:29:39.173Z,11.23
2018-05-18T13:32:06.672Z,11.47
2018-05-18T13:34:34.208Z,11.67
2018-05-18T13:37:01.718Z,11.40
2018-05-18T13:39:29.222Z,9.67
2018-05-18T13:41:56.748Z,10.87
2018-05-18T13:44:25.012Z,10.50
2018-05-18T13:46:52.524Z,10.57
2018-05-18T13:49:20.050Z,10.70
2018-05-18T13:51:47.576Z,10.13
2018-05-18T13:54:15.088Z,9.97
2018-05-18T13:56:42.591Z,10.90
2018-05-18T13:59:11.136Z,15.90
2018-05-18T14:01:39.442Z,11.17
2018-05-18T14:04:07.153Z,10.83
2018-05-18T14:06:34.894Z,10.57
2018-05-18T14:09:02.400Z,10.63
2018-05-18T14:11:29.896Z,10.20
2018-05-18T14:13:57.431Z,10.47
2018-05-18T14:16:24.929Z,10.80
2018-05-18T14:18:52.450Z,10.70
2018-05-18T14:21:20.014Z,10.87
2018-05-18T14:23:47.514Z,11.37
2018-05-18T14:26:15.809Z,10.87
2018-05-18T14:28:43.436Z,10.40
2018-05-18T14:31:10.975Z,11.60
2018-05-18T14:33:38.472Z,11.10
2018-05-18T14:36:06.002Z,11.40
2018-05-18T14:38:33.492Z,10.70
2018-05-18T14:41:01.006Z,10.67
2018-05-18T14:43:28.642Z,9.30
2018-05-18T14:45:57.054Z,10.07
2018-05-18T14:48:24.534Z,10.43
2018-05-18T14:50:52.095Z,10.13
2018-05-18T14:53:19.621Z,10.77
2018-05-18T14:55:47.120Z,10.10
2018-05-18T14:58:14.642Z,11.47
2018-05-18T15:00:42.923Z,10.30
2018-05-18T15:03:10.451Z,10.80
2018-05-18T15:05:37.972Z,11.03
2018-05-18T15:08:06.232Z,10.80
2018-05-18T15:10:33.822Z,9.47
2018-05-18T15:13:01.388Z,10.73
2018-05-18T15:15:28.882Z,10.00
2018-05-18T15:17:57.194Z,9.50
2018-05-18T15:20:24.692Z,9.07
2018-05-18T15:22:52.182Z,10.60
2018-05-18T15:25:19.708Z,9.90
2018-05-18T15:27:47.995Z,10.20
2018-05-18T15:30:15.514Z,9.23
2018-05-18T15:32:43.052Z,9.73
2018-05-18T15:35:10.565Z,9.87
2018-05-18T15:37:38.073Z,10.27
2018-05-18T15:40:05.595Z,11.43
2018-05-18T15:42:33.085Z,10.23
2018-05-18T15:45:01.382Z,10.03
2018-05-18T15:47:29.663Z,10.07
2018-05-18T15:49:57.157Z,10.47
2018-05-18T15:52:24.687Z,10.43
2018-05-18T15:54:52.906Z,10.10
2018-05-18T15:57:20.468Z,10.50
2018-05-18T15:59:47.956Z,10.23
2018-05-18T16:02:15.465Z,9.90
2018-05-18T16:04:42.969Z,11.67
2018-05-18T16:07:11.255Z,11.00
2018-05-18T16:09:38.746Z,9.70
2018-05-18T16:12:07.011Z,11.60
2018-05-18T16:14:34.543Z,11.57
2018-05-18T16:17:02.080Z,11.27
2018-05-18T16:19:29.731Z,10.13
2018-05-18T16:21:57.344Z,10.43
2018-05-18T16:24:24.872Z,9.87
2018-05-18T16:26:52.409Z,10.50
2018-05-18T16:29:20.030Z,10.73
2018-05-18T16:31:47.596Z,10.57
2018-05-18T16:34:15.864Z,11.30
2018-05-18T16:36:43.392Z,11.40
2018-05-18T16:39:10.894Z,10.03
2018-05-18T16:41:38.421Z,11.90
2018-05-18T16:44:05.928Z,10.70
2018-05-18T16:46:33.429Z,10.50
2018-05-18T16:49:01.723Z,11.30
2018-05-18T16:51:29.980Z,11.40
2018-05-18T16:53:57.620Z,10.90
2018-05-18T16:56:25.145Z,12.03
2018-05-18T16:58:52.651Z,11.47
2018-05-18T17:01:20.184Z,11.23
2018-05-18T17:03:47.695Z,11.77
2018-05-18T17:06:15.202Z,12.30
2018-05-18T17:08:42.737Z,11.93
2018-05-18T17:11:10.244Z,12.23
2018-05-18T17:13:37.753Z,11.20
2018-05-18T17:16:06.043Z,12.80
2018-05-18T17:18:34.305Z,13.47
2018-05-18T17:21:01.862Z,16.00
2018-05-18T17:23:29.331Z,11.73
2018-05-18T17:25:56.874Z,10.67
2018-05-18T17:28:25.132Z,10.30
2018-05-18T17:30:53.396Z,11.53
2018-05-18T17:33:20.924Z,11.20
2018-05-18T17:35:48.461Z,11.90
2018-05-18T17:38:15.983Z,10.97
2018-05-18T17:40:43.507Z,11.13
2018-05-18T17:43:11.003Z,10.17
2018-05-18T17:45:38.533Z,11.50
2018-05-18T17:48:06.796Z,11.57
2018-05-18T17:50:34.292Z,11.47
2018-05-18T17:53:01.825Z,11.23
2018-05-18T17:55:29.335Z,29.80
2018-05-18T17:57:56.859Z,18.03
2018-05-18T18:00:24.347Z,10.90
2018-05-18T18:02:51.839Z,10.90
2018-05-18T18:05:19.359Z,11.87
2018-05-18T18:07:46.938Z,11.17
2018-05-18T18:10:14.380Z,12.07
2018-05-18T18:12:41.909Z,10.33
2018-05-18T18:15:09.412Z,10.90
2018-05-18T18:17:37.722Z,9.87
2018-05-18T18:20:05.234Z,10.17
2018-05-18T18:22:32.803Z,11.90
2018-05-18T18:25:00.293Z,9.60
2018-05-18T18:27:27.802Z,11.00
2018-05-18T18:29:55.312Z,10.73
2018-05-18T18:32:22.839Z,11.20
2018-05-18T18:34:50.329Z,11.30
2018-05-18T18:37:17.826Z,8.97
2018-05-18T18:39:45.349Z,9.63
2018-05-18T18:42:12.852Z,10.10
2018-05-18T18:44:40.361Z,10.63
2018-05-18T18:47:07.901Z,17.93
2018-05-18T18:49:35.405Z,27.30
2018-05-18T18:52:02.987Z,14.13
2018-05-18T18:54:30.460Z,10.50
2018-05-18T18:56:57.980Z,11.20
2018-05-18T18:59:25.476Z,10.07
2018-05-18T19:01:53.004Z,10.87
2018-05-18T19:04:20.510Z,11.17
2018-05-18T19:06:48.011Z,9.67
2018-05-18T19:09:16.315Z,10.33
2018-05-18T19:11:43.821Z,10.47
2018-05-18T19:14:11.364Z,10.43
2018-05-18T19:16:38.900Z,10.97
2018-05-18T19:19:07.167Z,11.00
2018-05-18T19:21:34.666Z,10.13
2018-05-18T19:24:02.960Z,11.20
2018-05-18T19:26:31.218Z,10.93
2018-05-18T19:28:58.708Z,10.97
2018-05-18T19:31:26.235Z,11.03
2018-05-18T19:33:53.729Z,12.57
2018-05-18T19:36:21.231Z,12.33
2018-05-18T19:38:49.526Z,11.60
2018-05-18T19:41:17.788Z,11.87
2018-05-18T19:43:45.296Z,10.73
2018-05-18T19:46:12.823Z,11.30
2018-05-18T19:48:40.373Z,11.50
2018-05-18T19:51:08.608Z,10.60
2018-05-18T19:53:36.914Z,11.30
2018-05-18T19:56:04.415Z,10.77
2018-05-18T19:58:31.921Z,9.87
2018-05-18T20:01:00.223Z,10.07
2018-05-18T20:03:28.504Z,10.63
2018-05-18T20:05:56.044Z,10.90
2018-05-18T20:08:23.534Z,10.03
2018-05-18T20:10:51.025Z,11.47
2018-05-18T20:13:19.319Z,44.30
2018-05-18T20:15:47.579Z,26.40
2018-05-18T20:18:15.080Z,12.83
2018-05-18T20:20:42.603Z,11.53
2018-05-18T20:23:10.108Z,11.10
2018-05-18T20:25:37.612Z,10.87
2018-05-18T20:28:05.142Z,11.37
2018-05-18T20:30:32.641Z,11.37
2018-05-18T20:33:00.155Z,11.00
2018-05-18T20:35:27.674Z,11.10
2018-05-18T20:37:55.194Z,10.47
2018-05-18T20:40:22.690Z,11.67
2018-05-18T20:42:50.215Z,12.93
2018-05-18T20:45:17.720Z,12.27
2018-05-18T20:47:45.227Z,12.37
2018-05-18T20:50:13.519Z,11.10
2018-05-18T20:52:41.024Z,11.87
2018-05-18T20:55:08.527Z,11.07
2018-05-18T20:57:36.057Z,11.37
2018-05-18T21:00:03.550Z,11.40
2018-05-18T21:02:31.048Z,11.50
2018-05-18T21:04:58.581Z,12.07
2018-05-18T21:07:26.081Z,12.73
2018-05-18T21:09:53.592Z,11.90
2018-05-18T21:12:21.120Z,12.13
2018-05-18T21:14:48.627Z,43.20
2018-05-18T21:17:16.161Z,29.10
2018-05-18T21:19:43.655Z,13.40
2018-05-18T21:22:11.917Z,11.57
2018-05-18T21:24:39.448Z,11.47
2018-05-18T21:27:06.952Z,12.07
2018-05-18T21:29:34.439Z,11.83
2018-05-18T21:32:01.969Z,12.13
2018-05-18T21:34:29.475Z,12.60
2018-05-18T21:36:56.972Z,12.53
2018-05-18T21:39:25.265Z,12.30
2018-05-18T21:41:53.532Z,12.80
2018-05-18T21:44:21.035Z,12.40
2018-05-18T21:46:48.555Z,13.73
2018-05-18T21:49:16.072Z,12.27
2018-05-18T21:51:43.576Z,12.87
2018-05-18T21:54:11.109Z,11.57
2018-05-18T21:56:38.621Z,12.43
2018-05-18T21:59:06.121Z,12.47
2018-05-18T22:01:33.666Z,12.03
2018-05-18T22:04:01.168Z,12.07
2018-05-18T22:06:28.672Z,12.90
2018-05-18T22:08:56.983Z,12.10
2018-05-18T22:11:24.478Z,12.33
2018-05-18T22:13:51.976Z,11.57
2018-05-18T22:16:20.267Z,12.93
2018-05-18T22:18:48.548Z,12.30
2018-05-18T22:21:16.044Z,12.37
2018-05-18T22:23:43.567Z,11.90
2018-05-18T22:26:11.051Z,11.80
2018-05-18T22:28:38.554Z,11.83
2018-05-18T22:31:06.075Z,11.57
2018-05-18T22:33:33.624Z,12.87
2018-05-18T22:36:01.151Z,11.80
2018-05-18T22:38:29.426Z,36.27
2018-05-18T22:40:57.113Z,34.40
2018-05-18T22:43:25.419Z,17.30
2018-05-18T22:45:52.913Z,13.93
2018-05-18T22:48:20.405Z,13.77
2018-05-18T22:50:47.933Z,14.00
2018-05-18T22:53:15.437Z,13.23
2018-05-18T22:55:42.941Z,13.10
2018-05-18T22:58:10.464Z,13.30
2018-05-18T23:00:38.823Z,12.63
2018-05-18T23:03:07.092Z,13.03
2018-05-18T23:05:34.631Z,14.13
2018-05-18T23:08:02.136Z,12.30
2018-05-18T23:10:30.399Z,12.00
2018-05-18T23:12:57.920Z,12.60
2018-05-18T23:15:25.417Z,12.43
2018-05-18T23:17:52.924Z,12.30
2018-05-18T23:20:20.447Z,12.50
2018-05-18T23:22:47.949Z,12.77
2018-05-18T23:25:15.448Z,13.80
2018-05-18T23:27:42.969Z,15.47
2018-05-18T23:30:10.475Z,13.50
2018-05-18T23:32:37.973Z,13.63
2018-05-18T23:35:06.265Z,14.40
2018-05-18T23:37:33.789Z,15.00
2018-05-18T23:40:01.289Z,13.40
2018-05-18T23:42:29.583Z,14.03
2018-05-18T23:44:57.085Z,13.13
2018-05-18T23:47:24.587Z,13.73
2018-05-18T23:49:52.112Z,13.67
2018-05-18T23:52:19.614Z,12.80
2018-05-18T23:54:47.137Z,13.83
2018-05-18T23:57:15.428Z,15.00
2018-05-18T23:59:43.700Z,12.87
